Terminal Aerodrome Forecast
Issued by NWS

Home | Current Version | Previous Version | Text Only | Print | Product List | Glossary On
Versions: 1 2 3 4 5 6 7 8 9 10 11 12 13 14 15 16 17 18 19 20 21 22 23 24 25 26 27 28 29 30 31 32
000
FTUS42 KMHX 210537 CCA
TAFOAJ
TAF COR
KOAJ 210537Z 2106/2206 06010KT 5SM -SHRA SCT005 OVC015
      TEMPO 2106/2107 BKN003
     FM211100 21006KT P6SM BKN007
     FM211600 24010G17KT P6SM BKN015
     FM212000 23011KT P6SM BKN050
      AMD LTD TO CLD VIS AND WIND=

USA.gov is the U.S. government's official web portal to all federal, state and local government web resources and services.